createdAt,value
2017-06-03T00:00:04.395Z,0
2017-06-03T00:01:05.883Z,0
2017-06-03T00:02:07.352Z,0
2017-06-03T00:03:08.814Z,0
2017-06-03T00:04:10.296Z,0
2017-06-03T00:05:11.756Z,0
2017-06-03T00:06:13.236Z,0
2017-06-03T00:07:14.701Z,0
2017-06-03T00:08:16.155Z,0
2017-06-03T00:09:17.614Z,0
2017-06-03T00:10:19.071Z,0
2017-06-03T00:11:20.527Z,0
2017-06-03T00:12:21.993Z,0
2017-06-03T00:13:23.469Z,0
2017-06-03T00:14:24.934Z,0
2017-06-03T00:15:26.395Z,0
2017-06-03T00:16:27.866Z,0
2017-06-03T00:17:29.338Z,0
2017-06-03T00:18:30.810Z,0
2017-06-03T00:19:32.262Z,0
2017-06-03T00:20:33.727Z,0
2017-06-03T00:21:35.196Z,0
2017-06-03T00:22:36.661Z,0
2017-06-03T00:23:38.132Z,0
2017-06-03T00:24:39.591Z,0
2017-06-03T00:25:41.051Z,0
2017-06-03T00:26:42.531Z,0
2017-06-03T00:27:43.986Z,0
2017-06-03T00:28:45.440Z,0
2017-06-03T00:29:46.899Z,0
2017-06-03T00:30:48.358Z,0
2017-06-03T00:31:49.837Z,0
2017-06-03T00:32:51.299Z,0
2017-06-03T00:33:52.758Z,0
2017-06-03T00:34:54.228Z,0
2017-06-03T00:35:55.715Z,0
2017-06-03T00:36:57.172Z,0
2017-06-03T00:37:58.629Z,0
2017-06-03T00:39:00.109Z,0
2017-06-03T00:40:01.565Z,0
2017-06-03T00:41:03.021Z,0
2017-06-03T00:42:04.482Z,0
2017-06-03T00:43:05.943Z,0
2017-06-03T00:44:07.409Z,0
2017-06-03T00:45:08.863Z,0
2017-06-03T00:46:11.711Z,0
2017-06-03T00:47:13.174Z,0
2017-06-03T00:48:14.634Z,0
2017-06-03T00:49:16.114Z,0
2017-06-03T00:50:17.576Z,0
2017-06-03T00:51:19.036Z,0
2017-06-03T00:52:20.501Z,0
2017-06-03T00:53:21.960Z,0
2017-06-03T00:54:23.421Z,0
2017-06-03T00:55:24.887Z,0
2017-06-03T00:56:26.366Z,0
2017-06-03T00:57:27.827Z,0
2017-06-03T00:58:29.277Z,0
2017-06-03T00:59:30.741Z,0
2017-06-03T01:00:32.204Z,0
2017-06-03T01:01:33.695Z,0
2017-06-03T01:02:35.154Z,0
2017-06-03T01:03:36.610Z,0
2017-06-03T01:04:38.072Z,0
2017-06-03T01:05:39.525Z,0
2017-06-03T01:06:40.991Z,0
2017-06-03T01:07:42.457Z,0
2017-06-03T01:08:43.921Z,0
2017-06-03T01:09:45.378Z,0
2017-06-03T01:10:46.850Z,0
2017-06-03T01:11:48.325Z,0
2017-06-03T01:12:49.789Z,0
2017-06-03T01:13:51.263Z,0
2017-06-03T01:14:52.717Z,0
2017-06-03T01:15:54.188Z,0
2017-06-03T01:16:55.668Z,0
2017-06-03T01:17:57.125Z,0
2017-06-03T01:18:58.591Z,0
2017-06-03T01:20:00.060Z,0
2017-06-03T01:21:01.537Z,0
2017-06-03T01:22:03.007Z,0
2017-06-03T01:23:04.466Z,0
2017-06-03T01:24:05.934Z,0
2017-06-03T01:25:07.398Z,0
2017-06-03T01:26:08.878Z,0
2017-06-03T01:27:10.342Z,0
2017-06-03T01:28:11.803Z,0
2017-06-03T01:29:13.265Z,0
2017-06-03T01:30:14.719Z,0
2017-06-03T01:31:16.184Z,0
2017-06-03T01:32:17.644Z,0
2017-06-03T01:33:19.104Z,0
2017-06-03T01:34:20.644Z,0
2017-06-03T01:35:22.099Z,0
2017-06-03T01:36:23.563Z,0
2017-06-03T01:37:25.038Z,0
2017-06-03T01:38:26.501Z,0
2017-06-03T01:39:27.961Z,0
2017-06-03T01:40:29.426Z,0
2017-06-03T01:41:30.876Z,0
2017-06-03T01:42:32.352Z,0
2017-06-03T01:43:33.815Z,0
2017-06-03T01:44:35.284Z,0
2017-06-03T01:45:36.741Z,0
2017-06-03T01:46:38.212Z,0
2017-06-03T01:47:39.674Z,0
2017-06-03T01:48:41.146Z,0
2017-06-03T01:49:42.612Z,0
2017-06-03T01:50:44.077Z,0
2017-06-03T01:51:45.543Z,0
2017-06-03T01:52:47.001Z,0
2017-06-03T01:53:48.465Z,0
2017-06-03T01:54:49.934Z,0
2017-06-03T01:55:51.395Z,0
2017-06-03T01:56:52.860Z,0
2017-06-03T01:57:54.323Z,0
2017-06-03T01:58:55.788Z,0
2017-06-03T01:59:57.249Z,0
2017-06-03T02:00:58.720Z,0
2017-06-03T02:02:00.191Z,0
2017-06-03T02:03:01.638Z,0
2017-06-03T02:04:03.112Z,0
2017-06-03T02:05:04.576Z,0
2017-06-03T02:06:06.075Z,0
2017-06-03T02:07:07.512Z,0
2017-06-03T02:08:08.978Z,0
2017-06-03T02:09:10.452Z,0
2017-06-03T02:10:11.907Z,0
2017-06-03T02:11:13.375Z,0
2017-06-03T02:12:14.833Z,0
2017-06-03T02:13:16.288Z,0
2017-06-03T02:14:17.753Z,0
2017-06-03T02:15:19.210Z,0
2017-06-03T02:16:20.682Z,0
2017-06-03T02:17:22.145Z,0
2017-06-03T02:18:23.612Z,0
2017-06-03T02:19:25.071Z,0
2017-06-03T02:20:26.544Z,0
2017-06-03T02:21:28.006Z,0
2017-06-03T02:22:29.466Z,0
2017-06-03T02:23:30.926Z,0
2017-06-03T02:24:32.394Z,0
2017-06-03T02:25:33.848Z,0
2017-06-03T02:26:35.316Z,0
2017-06-03T02:27:36.779Z,0
2017-06-03T02:28:38.246Z,0
2017-06-03T02:29:39.711Z,0
2017-06-03T02:30:41.175Z,0
2017-06-03T02:31:42.640Z,0
2017-06-03T02:32:44.054Z,0
2017-06-03T02:33:45.523Z,4
2017-06-03T02:34:47.000Z,4
2017-06-03T02:35:48.462Z,4
2017-06-03T02:36:49.920Z,4
2017-06-03T02:37:51.396Z,4
2017-06-03T02:38:52.871Z,4
2017-06-03T02:39:54.321Z,4
2017-06-03T02:40:55.780Z,4
2017-06-03T02:41:57.250Z,4
2017-06-03T02:42:58.712Z,8
2017-06-03T02:44:00.182Z,8
2017-06-03T02:45:01.640Z,4
2017-06-03T02:46:03.096Z,8
2017-06-03T02:47:04.563Z,12
2017-06-03T02:48:06.024Z,8
2017-06-03T02:49:07.498Z,8
2017-06-03T02:50:08.959Z,12
2017-06-03T02:51:10.421Z,12
2017-06-03T02:52:11.902Z,16
2017-06-03T02:53:13.376Z,20
2017-06-03T02:54:14.851Z,20
2017-06-03T02:55:16.322Z,24
2017-06-03T02:56:17.793Z,24
2017-06-03T02:57:19.266Z,28
2017-06-03T02:58:20.730Z,32
2017-06-03T02:59:22.198Z,32
2017-06-03T03:00:23.666Z,36
2017-06-03T03:01:25.124Z,40
2017-06-03T03:02:26.581Z,44
2017-06-03T03:03:28.048Z,52
2017-06-03T03:04:29.547Z,56
2017-06-03T03:05:31.004Z,64
2017-06-03T03:06:32.470Z,64
2017-06-03T03:07:33.926Z,72
2017-06-03T03:08:35.393Z,72
2017-06-03T03:09:36.846Z,76
2017-06-03T03:10:38.306Z,80
2017-06-03T03:11:39.778Z,84
2017-06-03T03:12:41.263Z,92
2017-06-03T03:13:42.735Z,100
2017-06-03T03:14:44.190Z,112
2017-06-03T03:15:45.660Z,120
2017-06-03T03:16:47.119Z,128
2017-06-03T03:17:48.593Z,140
2017-06-03T03:18:50.061Z,152
2017-06-03T03:19:51.532Z,168
2017-06-03T03:20:53.000Z,180
2017-06-03T03:21:54.447Z,192
2017-06-03T03:22:55.912Z,200
2017-06-03T03:23:57.371Z,208
2017-06-03T03:24:58.838Z,216
2017-06-03T03:26:00.298Z,228
2017-06-03T03:27:01.767Z,240
2017-06-03T03:28:03.238Z,256
2017-06-03T03:29:04.695Z,264
2017-06-03T03:30:06.152Z,276
2017-06-03T03:31:07.630Z,280
2017-06-03T03:32:09.080Z,284
2017-06-03T03:33:10.550Z,292
2017-06-03T03:34:12.019Z,300
2017-06-03T03:35:13.493Z,312
2017-06-03T03:36:14.972Z,336
2017-06-03T03:37:16.455Z,356
2017-06-03T03:38:17.902Z,372
2017-06-03T03:39:19.388Z,384
2017-06-03T03:40:20.860Z,380
2017-06-03T03:41:22.327Z,368
2017-06-03T03:42:23.800Z,348
2017-06-03T03:43:25.257Z,332
2017-06-03T03:44:26.741Z,324
2017-06-03T03:45:28.211Z,328
2017-06-03T03:46:29.673Z,336
2017-06-03T03:47:31.141Z,340
2017-06-03T03:48:32.621Z,344
2017-06-03T03:49:34.091Z,340
2017-06-03T03:50:35.582Z,336
2017-06-03T03:51:37.041Z,324
2017-06-03T03:52:38.506Z,308
2017-06-03T03:53:39.969Z,304
2017-06-03T03:54:41.442Z,304
2017-06-03T03:55:42.906Z,308
2017-06-03T03:56:44.380Z,312
2017-06-03T03:57:45.853Z,320
2017-06-03T03:58:47.312Z,332
2017-06-03T03:59:48.772Z,348
2017-06-03T04:00:50.243Z,372
2017-06-03T04:01:51.713Z,400
2017-06-03T04:02:53.170Z,432
2017-06-03T04:03:54.631Z,468
2017-06-03T04:04:56.103Z,500
2017-06-03T04:05:57.566Z,528
2017-06-03T04:06:59.034Z,560
2017-06-03T04:08:00.507Z,580
2017-06-03T04:09:01.966Z,612
2017-06-03T04:10:03.433Z,656
2017-06-03T04:11:04.896Z,724
2017-06-03T04:12:06.386Z,812
2017-06-03T04:13:07.848Z,924
2017-06-03T04:14:09.314Z,1032
2017-06-03T04:15:10.779Z,1096
2017-06-03T04:16:12.262Z,1112
2017-06-03T04:17:13.721Z,1096
2017-06-03T04:18:15.185Z,1076
2017-06-03T04:19:16.671Z,1056
2017-06-03T04:20:18.129Z,1028
2017-06-03T04:21:19.596Z,988
2017-06-03T04:22:21.066Z,940
2017-06-03T04:23:22.527Z,884
2017-06-03T04:24:24.000Z,840
2017-06-03T04:25:25.472Z,796
2017-06-03T04:26:26.946Z,752
2017-06-03T04:27:28.423Z,712
2017-06-03T04:28:29.893Z,680
2017-06-03T04:29:31.367Z,660
2017-06-03T04:30:32.834Z,652
2017-06-03T04:31:34.306Z,668
2017-06-03T04:32:35.785Z,704
2017-06-03T04:33:37.251Z,748
2017-06-03T04:34:38.726Z,812
2017-06-03T04:35:40.197Z,880
2017-06-03T04:36:41.683Z,952
2017-06-03T04:37:43.169Z,1016
2017-06-03T04:38:44.680Z,1056
2017-06-03T04:39:46.164Z,1080
2017-06-03T04:40:47.621Z,1092
2017-06-03T04:41:49.105Z,1100
2017-06-03T04:42:50.567Z,1116
2017-06-03T04:43:52.036Z,1136
2017-06-03T04:44:53.514Z,1156
2017-06-03T04:45:54.989Z,1176
2017-06-03T04:46:56.467Z,1196
2017-06-03T04:47:57.924Z,1204
2017-06-03T04:48:59.393Z,1220
2017-06-03T04:50:00.899Z,1232
2017-06-03T04:51:02.372Z,1260
2017-06-03T04:52:03.848Z,1292
2017-06-03T04:53:05.316Z,1328
2017-06-03T04:54:06.791Z,1372
2017-06-03T04:55:08.261Z,1404
2017-06-03T04:56:09.736Z,1416
2017-06-03T04:57:11.210Z,1404
2017-06-03T04:58:12.684Z,1408
2017-06-03T04:59:14.155Z,1420
2017-06-03T05:00:15.631Z,1460
2017-06-03T05:01:17.101Z,1524
2017-06-03T05:02:18.582Z,1596
2017-06-03T05:03:20.055Z,1664
2017-06-03T05:04:21.515Z,1708
2017-06-03T05:05:22.992Z,1732
2017-06-03T05:06:24.462Z,1776
2017-06-03T05:07:25.931Z,1844
2017-06-03T05:08:27.422Z,1972
2017-06-03T05:09:28.885Z,2144
2017-06-03T05:10:30.356Z,2380
2017-06-03T05:11:31.904Z,2660
2017-06-03T05:12:33.362Z,3008
2017-06-03T05:13:34.830Z,3416
2017-06-03T05:14:36.294Z,3844
2017-06-03T05:15:37.771Z,4260
2017-06-03T05:16:39.247Z,4592
2017-06-03T05:17:40.718Z,4824
2017-06-03T05:18:42.185Z,5012
2017-06-03T05:19:43.656Z,5232
2017-06-03T05:20:45.154Z,5472
2017-06-03T05:21:46.623Z,5728
2017-06-03T05:22:48.103Z,5896
2017-06-03T05:23:49.570Z,6004
2017-06-03T05:24:51.060Z,6124
2017-06-03T05:25:52.553Z,6192
2017-06-03T05:26:54.062Z,6180
2017-06-03T05:27:55.533Z,6064
2017-06-03T05:28:57.007Z,5896
2017-06-03T05:29:58.489Z,5728
2017-06-03T05:30:59.967Z,5572
2017-06-03T05:32:01.436Z,5472
2017-06-03T05:33:02.911Z,5472
2017-06-03T05:34:04.378Z,5504
2017-06-03T05:35:05.843Z,5436
2017-06-03T05:36:07.373Z,5252
2017-06-03T05:37:08.876Z,5040
2017-06-03T05:38:10.357Z,4852
2017-06-03T05:39:11.836Z,4768
2017-06-03T05:40:13.318Z,4788
2017-06-03T05:41:14.792Z,4900
2017-06-03T05:42:16.263Z,5096
2017-06-03T05:43:17.755Z,5344
2017-06-03T05:44:19.224Z,5588
2017-06-03T05:45:20.713Z,5760
2017-06-03T05:46:22.185Z,5816
2017-06-03T05:47:23.664Z,5812
2017-06-03T05:48:25.124Z,5748
2017-06-03T05:49:26.597Z,5672
2017-06-03T05:50:28.056Z,5596
2017-06-03T05:51:29.527Z,5564
2017-06-03T05:52:31.013Z,5644
2017-06-03T05:53:32.497Z,5896
2017-06-03T05:54:33.966Z,6332
2017-06-03T05:55:35.435Z,6896
2017-06-03T05:56:36.905Z,7500
2017-06-03T05:57:38.365Z,8112
2017-06-03T05:58:39.836Z,8720
2017-06-03T05:59:41.305Z,9296
2017-06-03T06:00:42.766Z,9912
2017-06-03T06:01:44.229Z,10548
2017-06-03T06:02:45.711Z,11152
2017-06-03T06:03:47.183Z,11632
2017-06-03T06:04:48.672Z,11840
2017-06-03T06:05:50.143Z,11820
2017-06-03T06:06:51.627Z,11524
2017-06-03T06:07:53.096Z,11012
2017-06-03T06:08:54.567Z,10320
2017-06-03T06:09:56.037Z,9568
2017-06-03T06:10:57.503Z,8948
2017-06-03T06:11:58.995Z,8516
2017-06-03T06:13:00.464Z,8340
2017-06-03T06:14:01.961Z,8352
2017-06-03T06:15:03.439Z,8396
2017-06-03T06:16:04.910Z,8420
2017-06-03T06:17:06.371Z,8480
2017-06-03T06:18:07.837Z,8536
2017-06-03T06:19:09.310Z,8624
2017-06-03T06:20:10.778Z,8768
2017-06-03T06:21:12.253Z,9048
2017-06-03T06:22:13.718Z,9508
2017-06-03T06:23:15.192Z,10036
2017-06-03T06:24:16.670Z,10628
2017-06-03T06:25:18.150Z,11184
2017-06-03T06:26:19.639Z,11748
2017-06-03T06:27:21.111Z,12272
2017-06-03T06:28:22.616Z,12760
2017-06-03T06:29:24.064Z,13036
2017-06-03T06:30:25.551Z,13120
2017-06-03T06:31:27.026Z,13096
2017-06-03T06:32:28.493Z,13216
2017-06-03T06:33:29.970Z,13280
2017-06-03T06:34:31.449Z,13428
2017-06-03T06:35:33.448Z,13400
2017-06-03T06:36:34.940Z,13372
2017-06-03T06:37:36.408Z,13252
2017-06-03T06:38:37.885Z,12836
2017-06-03T06:39:39.363Z,12096
2017-06-03T06:40:40.832Z,11356
2017-06-03T06:41:42.300Z,10808
2017-06-03T06:42:43.773Z,10780
2017-06-03T06:43:45.251Z,11148
2017-06-03T06:44:46.742Z,11412
2017-06-03T06:45:48.209Z,11224
2017-06-03T06:46:49.680Z,10472
2017-06-03T06:47:51.157Z,9604
2017-06-03T06:48:52.645Z,9096
2017-06-03T06:49:54.118Z,9108
2017-06-03T06:50:55.613Z,9364
2017-06-03T06:51:57.082Z,9548
2017-06-03T06:52:58.564Z,9544
2017-06-03T06:54:00.035Z,9396
2017-06-03T06:55:01.508Z,9296
2017-06-03T06:56:02.983Z,9456
2017-06-03T06:57:04.449Z,9868
2017-06-03T06:58:05.920Z,10312
2017-06-03T06:59:07.404Z,10516
2017-06-03T07:00:08.875Z,10536
2017-06-03T07:01:10.342Z,10308
2017-06-03T07:02:11.817Z,9936
2017-06-03T07:03:13.307Z,9736
2017-06-03T07:04:14.780Z,9812
2017-06-03T07:05:16.260Z,10060
2017-06-03T07:06:17.761Z,10376
2017-06-03T07:07:19.257Z,10408
2017-06-03T07:08:20.727Z,10096
2017-06-03T07:09:22.200Z,9944
2017-06-03T07:10:23.688Z,10260
2017-06-03T07:11:25.148Z,10924
2017-06-03T07:12:26.613Z,11740
2017-06-03T07:13:28.097Z,12228
2017-06-03T07:14:29.569Z,12544
2017-06-03T07:15:31.075Z,12604
2017-06-03T07:16:32.552Z,12944
2017-06-03T07:17:34.020Z,13772
2017-06-03T07:18:35.491Z,14480
2017-06-03T07:19:36.961Z,14860
2017-06-03T07:20:38.435Z,14676
2017-06-03T07:21:40.208Z,13740
2017-06-03T07:22:41.988Z,12468
2017-06-03T07:23:43.449Z,10860
2017-06-03T07:24:44.996Z,9276
2017-06-03T07:25:46.455Z,8208
2017-06-03T07:26:47.931Z,7532
2017-06-03T07:27:49.414Z,6972
2017-06-03T07:28:50.885Z,6456
2017-06-03T07:29:52.377Z,5884
2017-06-03T07:30:53.833Z,5488
2017-06-03T07:31:55.303Z,5348
2017-06-03T07:32:56.767Z,5508
2017-06-03T07:33:58.233Z,5764
2017-06-03T07:34:59.723Z,6208
2017-06-03T07:36:01.221Z,6408
2017-06-03T07:37:02.700Z,6436
2017-06-03T07:38:04.172Z,6300
2017-06-03T07:39:05.643Z,6160
2017-06-03T07:40:07.109Z,6012
2017-06-03T07:41:08.576Z,5848
2017-06-03T07:42:10.046Z,5716
2017-06-03T07:43:11.536Z,5596
2017-06-03T07:44:13.024Z,5564
2017-06-03T07:45:14.491Z,5636
2017-06-03T07:46:15.970Z,5856
2017-06-03T07:47:17.452Z,6304
2017-06-03T07:48:18.920Z,6984
2017-06-03T07:49:20.398Z,7812
2017-06-03T07:50:21.878Z,8532
2017-06-03T07:51:23.361Z,8880
2017-06-03T07:52:24.835Z,9236
2017-06-03T07:53:26.306Z,9460
2017-06-03T07:54:27.778Z,9676
2017-06-03T07:55:29.247Z,9900
2017-06-03T07:56:30.754Z,10468
2017-06-03T07:57:32.227Z,11372
2017-06-03T07:58:33.695Z,12208
2017-06-03T07:59:35.170Z,12712
2017-06-03T08:00:36.641Z,12868
2017-06-03T08:01:38.115Z,12776
2017-06-03T08:02:39.635Z,12896
2017-06-03T08:03:41.131Z,13520
2017-06-03T08:04:42.611Z,14076
2017-06-03T08:05:44.094Z,14608
2017-06-03T08:06:45.595Z,15436
2017-06-03T08:07:47.127Z,16792
2017-06-03T08:08:48.597Z,18784
2017-06-03T08:09:50.072Z,20640
2017-06-03T08:10:51.549Z,21888
2017-06-03T08:11:53.024Z,22560
2017-06-03T08:12:54.494Z,23136
2017-06-03T08:13:55.985Z,24384
2017-06-03T08:14:57.468Z,26272
2017-06-03T08:15:58.958Z,27968
2017-06-03T08:17:00.422Z,28800
2017-06-03T08:18:01.904Z,29024
2017-06-03T08:19:03.390Z,28416
2017-06-03T08:20:04.874Z,27424
2017-06-03T08:21:06.371Z,26336
2017-06-03T08:22:07.842Z,26016
2017-06-03T08:23:09.319Z,26688
2017-06-03T08:24:10.801Z,28192
2017-06-03T08:25:12.282Z,30304
2017-06-03T08:26:13.780Z,32352
2017-06-03T08:27:15.248Z,34112
2017-06-03T08:28:16.724Z,36064
2017-06-03T08:29:18.209Z,38016
2017-06-03T08:30:19.691Z,37760
2017-06-03T08:31:21.162Z,38400
2017-06-03T08:32:22.646Z,38016
2017-06-03T08:33:24.131Z,38912
2017-06-03T08:34:25.607Z,39584
2017-06-03T08:35:27.091Z,40256
2017-06-03T08:36:28.568Z,41664
2017-06-03T08:37:30.048Z,42784
2017-06-03T08:38:31.528Z,43232
2017-06-03T08:39:33.016Z,44544
2017-06-03T08:40:34.520Z,45472
2017-06-03T08:41:35.990Z,47200
2017-06-03T08:42:37.477Z,49088
2017-06-03T08:43:38.964Z,71520
2017-06-03T08:44:40.442Z,60288
2017-06-03T08:45:41.923Z,86752
2017-06-03T08:46:43.398Z,58656
2017-06-03T08:47:44.878Z,85216
2017-06-03T08:48:46.370Z,88160
2017-06-03T08:49:47.844Z,94560
2017-06-03T08:50:49.370Z,92608
2017-06-03T08:51:50.844Z,68928
2017-06-03T08:52:52.342Z,96448
2017-06-03T08:53:53.827Z,84224
2017-06-03T08:54:55.311Z,60032
2017-06-03T08:55:56.793Z,62752
2017-06-03T08:56:58.304Z,53856
2017-06-03T08:57:59.762Z,62336
2017-06-03T08:59:01.247Z,65824
2017-06-03T09:00:02.742Z,77920
2017-06-03T09:01:04.223Z,78880
2017-06-03T09:02:05.715Z,63232
2017-06-03T09:03:07.207Z,48992
2017-06-03T09:04:08.695Z,86592
2017-06-03T09:05:10.214Z,88960
2017-06-03T09:06:11.719Z,87264
2017-06-03T09:07:13.212Z,91104
2017-06-03T09:08:14.700Z,92352
2017-06-03T09:09:16.181Z,88416
2017-06-03T09:10:17.684Z,94240
2017-06-03T09:11:19.193Z,98208
2017-06-03T09:12:20.697Z,96896
2017-06-03T09:13:22.182Z,96704
2017-06-03T09:14:23.662Z,91744
2017-06-03T09:15:25.158Z,89408
2017-06-03T09:16:26.639Z,88608
2017-06-03T09:17:28.143Z,89024
2017-06-03T09:18:29.643Z,90400
2017-06-03T09:19:31.138Z,98656
2017-06-03T09:20:32.635Z,93152
2017-06-03T09:21:34.136Z,88544
2017-06-03T09:22:35.626Z,87072
2017-06-03T09:23:37.122Z,89568
2017-06-03T09:24:38.607Z,94208
2017-06-03T09:25:40.102Z,94752
2017-06-03T09:26:41.584Z,99072
2017-06-03T09:27:43.063Z,96320
2017-06-03T13:14:37.945Z,31424
2017-06-03T13:15:39.427Z,31840
2017-06-03T13:17:01.020Z,32320
2017-06-03T13:18:02.546Z,32608
2017-06-03T13:19:24.719Z,32960
2017-06-03T13:20:26.231Z,33088
2017-06-03T13:21:47.859Z,33376
2017-06-03T13:22:49.348Z,33504
2017-06-03T13:24:10.911Z,34208
2017-06-03T13:25:12.453Z,35296
2017-06-03T13:26:34.021Z,37376
2017-06-03T13:27:35.564Z,40288
2017-06-03T13:28:57.116Z,41568
2017-06-03T13:29:58.620Z,42784
2017-06-03T13:31:20.205Z,41984
2017-06-03T13:32:21.682Z,40736
2017-06-03T13:33:43.274Z,39808
2017-06-03T13:34:44.756Z,41664
2017-06-03T13:36:06.321Z,45344
2017-06-03T13:37:07.824Z,53600
2017-06-03T13:38:29.384Z,65248
2017-06-03T13:39:30.880Z,71424
2017-06-03T13:40:52.439Z,79296
2017-06-03T13:41:53.920Z,77568
2017-06-03T13:43:15.504Z,54624
2017-06-03T13:44:16.974Z,80992
2017-06-03T13:45:38.525Z,87968
2017-06-03T13:46:40.013Z,86656
2017-06-03T13:48:02.593Z,87424
2017-06-03T13:49:04.081Z,86912
2017-06-03T13:50:25.680Z,68320
2017-06-03T13:51:27.172Z,66592
2017-06-03T13:52:28.659Z,63008
2017-06-03T13:53:30.164Z,63552
2017-06-03T13:54:31.643Z,62720
2017-06-03T13:55:33.141Z,59872
2017-06-03T13:56:34.643Z,51936
2017-06-03T13:57:36.133Z,40768
2017-06-03T13:58:37.614Z,33760
2017-06-03T13:59:39.086Z,29248
2017-06-03T14:00:40.572Z,24960
2017-06-03T14:01:42.064Z,21984
2017-06-03T14:02:43.540Z,20480
2017-06-03T14:03:45.094Z,20448
2017-06-03T14:04:46.592Z,20864
2017-06-03T14:05:48.074Z,21024
2017-06-03T14:06:49.567Z,20480
2017-06-03T14:07:51.108Z,19616
2017-06-03T14:08:52.593Z,19072
2017-06-03T14:09:54.074Z,18912
2017-06-03T14:10:55.577Z,18848
2017-06-03T14:11:57.077Z,18976
2017-06-03T14:12:58.586Z,19200
2017-06-03T14:14:00.092Z,19968
2017-06-03T14:15:01.580Z,21280
2017-06-03T14:16:03.067Z,22528
2017-06-03T14:17:04.563Z,23520
2017-06-03T14:18:06.055Z,24256
2017-06-03T14:19:07.542Z,24768
2017-06-03T14:20:09.033Z,25056
2017-06-03T14:21:10.506Z,25152
2017-06-03T14:22:11.988Z,25216
2017-06-03T14:23:13.511Z,25344
2017-06-03T14:24:15.004Z,25440
2017-06-03T14:25:16.482Z,25568
2017-06-03T14:26:17.963Z,25504
2017-06-03T14:27:19.437Z,25568
2017-06-03T14:28:20.924Z,25792
2017-06-03T14:29:22.422Z,26016
2017-06-03T14:30:23.903Z,26272
2017-06-03T14:31:25.395Z,26464
2017-06-03T14:32:26.885Z,26592
2017-06-03T14:33:28.360Z,26752
2017-06-03T14:34:29.841Z,26816
2017-06-03T14:35:31.354Z,26528
2017-06-03T14:36:32.854Z,25632
2017-06-03T14:37:34.374Z,24064
2017-06-03T14:38:35.866Z,22080
2017-06-03T14:39:37.359Z,20128
2017-06-03T14:40:38.862Z,18656
2017-06-03T14:41:40.336Z,17536
2017-06-03T14:42:41.822Z,16288
2017-06-03T14:43:43.301Z,15144
2017-06-03T14:44:44.783Z,14192
2017-06-03T14:45:46.290Z,13692
2017-06-03T14:46:47.823Z,13460
2017-06-03T14:47:49.337Z,13432
2017-06-03T14:48:50.841Z,13420
2017-06-03T14:49:52.332Z,13196
2017-06-03T14:50:53.818Z,12664
2017-06-03T14:51:55.297Z,11948
2017-06-03T14:52:56.862Z,11272
2017-06-03T14:53:58.316Z,10728
2017-06-03T14:54:59.789Z,10404
2017-06-03T14:56:01.263Z,10240
2017-06-03T14:57:02.737Z,10356
2017-06-03T14:58:04.217Z,10856
2017-06-03T14:59:05.693Z,11760
2017-06-03T15:00:07.184Z,13228
2017-06-03T15:01:08.675Z,15244
2017-06-03T15:02:10.151Z,17888
2017-06-03T15:03:11.617Z,20704
2017-06-03T15:04:13.113Z,23488
2017-06-03T15:05:14.586Z,25632
2017-06-03T15:06:16.067Z,27232
2017-06-03T15:07:17.554Z,28160
2017-06-03T15:08:19.050Z,29216
2017-06-03T15:09:20.538Z,30208
2017-06-03T15:10:22.030Z,30144
2017-06-03T15:11:23.504Z,27616
2017-06-03T15:12:24.980Z,26432
2017-06-03T15:13:26.461Z,25664
2017-06-03T15:14:27.949Z,25376
2017-06-03T15:15:29.433Z,25376
2017-06-03T15:16:30.910Z,25632
2017-06-03T15:17:32.395Z,25984
2017-06-03T15:18:33.870Z,26464
2017-06-03T15:19:35.345Z,26976
2017-06-03T15:20:36.842Z,27424
2017-06-03T15:21:38.314Z,28192
2017-06-03T15:22:39.796Z,29664
2017-06-03T15:23:41.287Z,31424
2017-06-03T15:24:42.791Z,31680
2017-06-03T15:25:44.275Z,32832
2017-06-03T15:26:45.799Z,36736
2017-06-03T15:27:47.278Z,40160
2017-06-03T15:28:48.763Z,38976
2017-06-03T15:29:50.240Z,38176
2017-06-03T15:30:51.717Z,37504
2017-06-03T15:31:53.205Z,39040
2017-06-03T15:32:54.714Z,38528
2017-06-03T15:33:56.178Z,39136
2017-06-03T15:34:57.659Z,38848
2017-06-03T15:35:59.155Z,39904
2017-06-03T15:37:00.640Z,39616
2017-06-03T15:38:02.141Z,38880
2017-06-03T15:39:03.630Z,35712
2017-06-03T15:40:05.117Z,37440
2017-06-03T15:41:06.598Z,37312
2017-06-03T15:42:08.086Z,38016
2017-06-03T15:43:09.565Z,37984
2017-06-03T15:44:11.079Z,37632
2017-06-03T15:45:12.594Z,36896
2017-06-03T15:46:14.133Z,36096
2017-06-03T15:47:15.643Z,35904
2017-06-03T15:48:17.133Z,33760
2017-06-03T15:49:18.623Z,29920
2017-06-03T15:50:20.112Z,31264
2017-06-03T15:51:21.620Z,33568
2017-06-03T15:52:23.116Z,30656
2017-06-03T15:53:24.607Z,27136
2017-06-03T15:54:26.085Z,26464
2017-06-03T15:55:27.580Z,27136
2017-06-03T15:56:29.103Z,24768
2017-06-03T15:57:30.615Z,25024
2017-06-03T15:58:32.103Z,24544
2017-06-03T15:59:33.618Z,23392
2017-06-03T16:00:35.089Z,22624
2017-06-03T16:01:36.570Z,22528
2017-06-03T16:02:38.070Z,22240
2017-06-03T16:03:39.543Z,22272
2017-06-03T16:04:41.057Z,21984
2017-06-03T16:05:42.546Z,22176
2017-06-03T16:06:44.024Z,21792
2017-06-03T16:07:45.512Z,21728
2017-06-03T16:08:46.985Z,21216
2017-06-03T16:09:48.480Z,20544
2017-06-03T16:10:49.960Z,20320
2017-06-03T16:11:51.492Z,20000
2017-06-03T16:12:52.963Z,19552
2017-06-03T16:13:54.456Z,18944
2017-06-03T16:14:55.952Z,18336
2017-06-03T16:15:57.435Z,17576
2017-06-03T16:16:58.927Z,17412
2017-06-03T16:18:00.400Z,16892
2017-06-03T16:19:01.881Z,16332
2017-06-03T16:20:03.374Z,15828
2017-06-03T16:21:04.858Z,16004
2017-06-03T16:22:06.349Z,16220
2017-06-03T16:23:07.820Z,16212
2017-06-03T16:24:09.324Z,16440
2017-06-03T16:25:10.841Z,16464
2017-06-03T16:26:12.364Z,16836
2017-06-03T16:27:13.856Z,17064
2017-06-03T16:28:15.353Z,17368
2017-06-03T16:29:16.823Z,17296
2017-06-03T16:30:18.303Z,17300
2017-06-03T16:31:19.780Z,17564
2017-06-03T16:32:21.248Z,17692
2017-06-03T16:33:22.733Z,17480
2017-06-03T16:34:24.216Z,17332
2017-06-03T16:35:25.700Z,17180
2017-06-03T16:36:27.186Z,16692
2017-06-03T16:37:28.636Z,16072
2017-06-03T16:38:30.118Z,15728
2017-06-03T16:39:31.593Z,15440
2017-06-03T16:40:33.082Z,14768
2017-06-03T16:41:34.551Z,14936
2017-06-03T16:42:36.028Z,15072
2017-06-03T16:43:37.508Z,15728
2017-06-03T16:44:39.019Z,15652
2017-06-03T16:45:40.517Z,15948
2017-06-03T16:46:42.007Z,16304
2017-06-03T16:47:43.498Z,16536
2017-06-03T16:48:44.986Z,16504
2017-06-03T16:49:46.470Z,16372
2017-06-03T16:50:47.954Z,16236
2017-06-03T16:51:49.427Z,16084
2017-06-03T16:52:50.895Z,15868
2017-06-03T16:53:52.378Z,15764
2017-06-03T16:54:53.856Z,15600
2017-06-03T16:55:55.341Z,15472
2017-06-03T16:56:56.825Z,15392
2017-06-03T16:57:58.313Z,15312
2017-06-03T16:58:59.805Z,15388
2017-06-03T17:00:01.279Z,15520
2017-06-03T17:01:02.769Z,15660
2017-06-03T17:02:04.260Z,15708
2017-06-03T17:03:05.735Z,15764
2017-06-03T17:04:07.208Z,15776
2017-06-03T17:05:08.686Z,15640
2017-06-03T17:06:10.203Z,15548
2017-06-03T17:07:11.674Z,15380
2017-06-03T17:08:13.189Z,15192
2017-06-03T17:09:14.677Z,15004
2017-06-03T17:10:16.164Z,14748
2017-06-03T17:11:17.649Z,14528
2017-06-03T17:12:19.117Z,14280
2017-06-03T17:13:20.594Z,14092
2017-06-03T17:14:22.070Z,13888
2017-06-03T17:15:23.539Z,13708
2017-06-03T17:16:25.009Z,13620
2017-06-03T17:17:26.516Z,13568
2017-06-03T17:18:28.001Z,13476
2017-06-03T17:19:29.477Z,13440
2017-06-03T17:20:30.966Z,13408
2017-06-03T17:21:32.439Z,13304
2017-06-03T17:22:33.913Z,13120
2017-06-03T17:23:35.396Z,12908
2017-06-03T17:24:36.866Z,12712
2017-06-03T17:25:38.363Z,12520
2017-06-03T17:26:39.834Z,12344
2017-06-03T17:27:41.331Z,12148
2017-06-03T17:28:42.780Z,11960
2017-06-03T17:29:44.265Z,11772
2017-06-03T17:30:45.741Z,11568
2017-06-03T17:31:47.221Z,11364
2017-06-03T17:32:48.688Z,11132
2017-06-03T17:33:50.180Z,10892
2017-06-03T17:34:51.638Z,10648
2017-06-03T17:35:53.113Z,10460